sensor_id;sensor_type;location;lat;lon;timestamp;pressure;altitude;pressure_sealevel;temperature;humidity
77212;BME280;66206;0.000;0.000;2023-03-01T00:00:06;98741.55;;;22.78;25.70
77212;BME280;66206;0.000;0.000;2023-03-01T00:02:33;98746.10;;;22.83;25.78
77212;BME280;66206;0.000;0.000;2023-03-01T00:05:00;98744.98;;;22.67;26.13
77212;BME280;66206;0.000;0.000;2023-03-01T00:07:27;98744.95;;;22.52;26.16
77212;BME280;66206;0.000;0.000;2023-03-01T00:09:53;98746.21;;;22.86;26.12
77212;BME280;66206;0.000;0.000;2023-03-01T00:12:20;98746.26;;;22.68;26.29
77212;BME280;66206;0.000;0.000;2023-03-01T00:14:47;98748.89;;;22.67;26.38
77212;BME280;66206;0.000;0.000;2023-03-01T00:17:14;98747.10;;;22.46;26.50
77212;BME280;66206;0.000;0.000;2023-03-01T00:19:40;98749.13;;;22.94;26.26
77212;BME280;66206;0.000;0.000;2023-03-01T00:22:07;98746.59;;;22.62;26.80
77212;BME280;66206;0.000;0.000;2023-03-01T00:24:34;98747.48;;;22.57;25.72
77212;BME280;66206;0.000;0.000;2023-03-01T00:27:00;98747.55;;;22.54;25.86
77212;BME280;66206;0.000;0.000;2023-03-01T00:29:27;98748.33;;;22.19;25.86
77212;BME280;66206;0.000;0.000;2023-03-01T00:31:54;98743.38;;;22.48;25.70
77212;BME280;66206;0.000;0.000;2023-03-01T00:34:20;98747.50;;;21.93;24.90
77212;BME280;66206;0.000;0.000;2023-03-01T00:36:47;98741.26;;;21.98;24.65
77212;BME280;66206;0.000;0.000;2023-03-01T00:39:14;98738.42;;;21.98;24.73
77212;BME280;66206;0.000;0.000;2023-03-01T00:41:41;98740.10;;;21.80;24.36
77212;BME280;66206;0.000;0.000;2023-03-01T00:44:08;98741.50;;;21.86;24.23
77212;BME280;66206;0.000;0.000;2023-03-01T00:46:35;98742.24;;;21.82;24.12
77212;BME280;66206;0.000;0.000;2023-03-01T00:49:02;98743.81;;;21.82;24.24
77212;BME280;66206;0.000;0.000;2023-03-01T00:51:29;98739.54;;;21.63;24.03
77212;BME280;66206;0.000;0.000;2023-03-01T00:53:56;98735.70;;;21.73;23.97
77212;BME280;66206;0.000;0.000;2023-03-01T00:56:23;98735.38;;;21.73;23.95
77212;BME280;66206;0.000;0.000;2023-03-01T00:58:50;98731.29;;;21.67;23.96
77212;BME280;66206;0.000;0.000;2023-03-01T01:01:17;98727.76;;;21.55;23.85
77212;BME280;66206;0.000;0.000;2023-03-01T01:03:45;98722.39;;;21.38;24.10
77212;BME280;66206;0.000;0.000;2023-03-01T01:06:14;98717.02;;;21.61;23.85
77212;BME280;66206;0.000;0.000;2023-03-01T01:08:41;98720.44;;;21.39;24.04
77212;BME280;66206;0.000;0.000;2023-03-01T01:11:08;98719.62;;;21.41;23.93
77212;BME280;66206;0.000;0.000;2023-03-01T01:13:35;98716.77;;;21.44;23.99
77212;BME280;66206;0.000;0.000;2023-03-01T01:16:02;98711.57;;;21.37;24.05
77212;BME280;66206;0.000;0.000;2023-03-01T01:18:29;98710.04;;;21.12;24.00
77212;BME280;66206;0.000;0.000;2023-03-01T01:20:55;98703.20;;;21.64;23.81
77212;BME280;66206;0.000;0.000;2023-03-01T01:23:22;98699.13;;;21.28;23.89
77212;BME280;66206;0.000;0.000;2023-03-01T01:25:49;98697.26;;;21.11;24.13
77212;BME280;66206;0.000;0.000;2023-03-01T01:28:15;98695.62;;;21.08;23.96
77212;BME280;66206;0.000;0.000;2023-03-01T01:30:42;98691.76;;;21.13;23.92
77212;BME280;66206;0.000;0.000;2023-03-01T01:33:09;98689.12;;;21.14;23.89
77212;BME280;66206;0.000;0.000;2023-03-01T01:35:35;98684.13;;;21.14;23.94
77212;BME280;66206;0.000;0.000;2023-03-01T01:38:02;98680.86;;;20.92;24.13
77212;BME280;66206;0.000;0.000;2023-03-01T01:40:29;98679.82;;;21.09;24.12
77212;BME280;66206;0.000;0.000;2023-03-01T01:42:55;98681.06;;;20.86;24.24
77212;BME280;66206;0.000;0.000;2023-03-01T01:45:27;98677.83;;;20.80;24.07
77212;BME280;66206;0.000;0.000;2023-03-01T01:47:49;98671.58;;;21.14;24.02
77212;BME280;66206;0.000;0.000;2023-03-01T01:50:16;98672.19;;;20.74;24.15
77212;BME280;66206;0.000;0.000;2023-03-01T01:52:45;98669.72;;;20.95;24.01
77212;BME280;66206;0.000;0.000;2023-03-01T01:55:15;98664.12;;;21.08;23.92
77212;BME280;66206;0.000;0.000;2023-03-01T01:57:44;98664.41;;;20.82;24.10
77212;BME280;66206;0.000;0.000;2023-03-01T02:00:13;98661.27;;;20.56;24.13
77212;BME280;66206;0.000;0.000;2023-03-01T02:02:40;98658.73;;;20.71;24.18
77212;BME280;66206;0.000;0.000;2023-03-01T02:05:09;98656.26;;;20.62;24.27
77212;BME280;66206;0.000;0.000;2023-03-01T02:07:37;98650.27;;;20.53;24.28
77212;BME280;66206;0.000;0.000;2023-03-01T02:10:05;98649.21;;;20.62;24.24
77212;BME280;66206;0.000;0.000;2023-03-01T02:12:32;98648.40;;;20.78;24.10
77212;BME280;66206;0.000;0.000;2023-03-01T02:14:59;98645.83;;;20.78;24.09
77212;BME280;66206;0.000;0.000;2023-03-01T02:17:26;98645.63;;;20.71;24.04
77212;BME280;66206;0.000;0.000;2023-03-01T02:19:57;98638.64;;;20.63;24.06
77212;BME280;66206;0.000;0.000;2023-03-01T02:22:20;98635.16;;;20.92;24.07
77212;BME280;66206;0.000;0.000;2023-03-01T02:24:50;98628.34;;;20.48;24.20
77212;BME280;66206;0.000;0.000;2023-03-01T02:27:13;98630.03;;;20.41;24.29
77212;BME280;66206;0.000;0.000;2023-03-01T02:29:41;98627.54;;;20.54;24.26
77212;BME280;66206;0.000;0.000;2023-03-01T02:32:08;98631.59;;;20.47;24.13
77212;BME280;66206;0.000;0.000;2023-03-01T02:34:35;98630.58;;;20.54;24.05
77212;BME280;66206;0.000;0.000;2023-03-01T02:37:03;98629.53;;;20.57;24.10
77212;BME280;66206;0.000;0.000;2023-03-01T02:39:31;98622.65;;;20.43;24.18
77212;BME280;66206;0.000;0.000;2023-03-01T02:41:59;98622.55;;;20.34;24.13
77212;BME280;66206;0.000;0.000;2023-03-01T02:44:27;98620.39;;;20.43;24.16
77212;BME280;66206;0.000;0.000;2023-03-01T02:46:55;98617.57;;;20.53;24.07
77212;BME280;66206;0.000;0.000;2023-03-01T02:49:23;98615.10;;;20.46;24.23
77212;BME280;66206;0.000;0.000;2023-03-01T02:51:54;98613.54;;;20.58;24.07
77212;BME280;66206;0.000;0.000;2023-03-01T02:54:20;98611.50;;;20.46;24.24
77212;BME280;66206;0.000;0.000;2023-03-01T02:56:45;98608.86;;;20.40;24.21
77212;BME280;66206;0.000;0.000;2023-03-01T02:59:11;98605.00;;;20.85;23.82
77212;BME280;66206;0.000;0.000;2023-03-01T03:01:38;98604.13;;;20.53;24.01
77212;BME280;66206;0.000;0.000;2023-03-01T03:04:05;98605.99;;;20.59;24.10
77212;BME280;66206;0.000;0.000;2023-03-01T03:06:32;98604.26;;;20.33;24.19
77212;BME280;66206;0.000;0.000;2023-03-01T03:08:59;98608.56;;;20.30;24.23
77212;BME280;66206;0.000;0.000;2023-03-01T03:11:26;98602.49;;;20.36;24.06
77212;BME280;66206;0.000;0.000;2023-03-01T03:13:52;98599.92;;;20.62;24.11
77212;BME280;66206;0.000;0.000;2023-03-01T03:16:19;98596.87;;;20.70;23.89
77212;BME280;66206;0.000;0.000;2023-03-01T03:18:46;98597.11;;;20.49;24.10
77212;BME280;66206;0.000;0.000;2023-03-01T03:21:14;98593.64;;;20.23;24.18
77212;BME280;66206;0.000;0.000;2023-03-01T03:23:41;98593.23;;;20.18;24.27
77212;BME280;66206;0.000;0.000;2023-03-01T03:26:07;98590.41;;;20.22;24.30
77212;BME280;66206;0.000;0.000;2023-03-01T03:28:34;98591.50;;;20.36;24.07
77212;BME280;66206;0.000;0.000;2023-03-01T03:31:01;98591.65;;;20.23;24.21
77212;BME280;66206;0.000;0.000;2023-03-01T03:33:28;98587.90;;;20.29;24.06
77212;BME280;66206;0.000;0.000;2023-03-01T03:35:54;98587.29;;;20.21;24.17
77212;BME280;66206;0.000;0.000;2023-03-01T03:38:21;98588.17;;;20.29;24.13
77212;BME280;66206;0.000;0.000;2023-03-01T03:40:49;98590.74;;;20.33;24.04
77212;BME280;66206;0.000;0.000;2023-03-01T03:43:17;98590.41;;;20.38;24.06
77212;BME280;66206;0.000;0.000;2023-03-01T03:45:45;98586.97;;;20.33;24.09
77212;BME280;66206;0.000;0.000;2023-03-01T03:48:12;98585.78;;;20.33;24.09
77212;BME280;66206;0.000;0.000;2023-03-01T03:50:39;98582.99;;;20.13;24.19
77212;BME280;66206;0.000;0.000;2023-03-01T03:53:07;98583.22;;;20.18;24.10
77212;BME280;66206;0.000;0.000;2023-03-01T03:55:34;98585.08;;;20.19;24.14
77212;BME280;66206;0.000;0.000;2023-03-01T03:58:02;98584.98;;;20.28;24.12
77212;BME280;66206;0.000;0.000;2023-03-01T04:00:29;98583.82;;;20.18;24.11
77212;BME280;66206;0.000;0.000;2023-03-01T04:02:55;98582.61;;;20.19;24.18
77212;BME280;66206;0.000;0.000;2023-03-01T04:05:22;98582.66;;;20.26;24.10
77212;BME280;66206;0.000;0.000;2023-03-01T04:07:49;98579.87;;;20.25;24.09
77212;BME280;66206;0.000;0.000;2023-03-01T04:10:16;98581.91;;;20.25;24.04
77212;BME280;66206;0.000;0.000;2023-03-01T04:12:43;98588.80;;;20.48;23.89
77212;BME280;66206;0.000;0.000;2023-03-01T04:15:11;98595.75;;;20.51;23.90
77212;BME280;66206;0.000;0.000;2023-03-01T04:17:38;98598.90;;;20.33;23.99
77212;BME280;66206;0.000;0.000;2023-03-01T04:20:05;98599.52;;;20.35;23.86
77212;BME280;66206;0.000;0.000;2023-03-01T04:22:32;98599.90;;;20.49;23.80
77212;BME280;66206;0.000;0.000;2023-03-01T04:24:59;98599.55;;;20.43;23.60
77212;BME280;66206;0.000;0.000;2023-03-01T04:27:25;98598.27;;;20.39;23.48
77212;BME280;66206;0.000;0.000;2023-03-01T04:29:52;98592.01;;;20.93;23.29
77212;BME280;66206;0.000;0.000;2023-03-01T04:32:19;98594.85;;;20.76;23.29
77212;BME280;66206;0.000;0.000;2023-03-01T04:34:45;98595.41;;;20.95;23.25
77212;BME280;66206;0.000;0.000;2023-03-01T04:37:12;98598.56;;;20.94;23.09
77212;BME280;66206;0.000;0.000;2023-03-01T04:39:38;98599.31;;;21.05;23.09
77212;BME280;66206;0.000;0.000;2023-03-01T04:42:05;98596.36;;;21.08;23.12
77212;BME280;66206;0.000;0.000;2023-03-01T04:44:32;98595.34;;;21.07;23.13
77212;BME280;66206;0.000;0.000;2023-03-01T04:46:58;98592.78;;;20.88;23.16
77212;BME280;66206;0.000;0.000;2023-03-01T04:49:25;98590.32;;;20.94;23.13
77212;BME280;66206;0.000;0.000;2023-03-01T04:51:52;98589.92;;;20.98;23.16
77212;BME280;66206;0.000;0.000;2023-03-01T04:54:18;98589.73;;;20.96;23.34
77212;BME280;66206;0.000;0.000;2023-03-01T04:56:45;98589.74;;;20.81;23.29
77212;BME280;66206;0.000;0.000;2023-03-01T04:59:12;98588.54;;;20.82;23.50
77212;BME280;66206;0.000;0.000;2023-03-01T05:01:38;98594.56;;;20.71;23.72
77212;BME280;66206;0.000;0.000;2023-03-01T05:04:05;98595.97;;;20.85;24.93
77212;BME280;66206;0.000;0.000;2023-03-01T05:06:32;98596.72;;;20.65;26.78
77212;BME280;66206;0.000;0.000;2023-03-01T05:08:59;98595.17;;;20.78;24.35
77212;BME280;66206;0.000;0.000;2023-03-01T05:11:25;98591.81;;;20.54;24.36
77212;BME280;66206;0.000;0.000;2023-03-01T05:13:52;98586.27;;;20.76;24.35
77212;BME280;66206;0.000;0.000;2023-03-01T05:16:19;98586.92;;;20.56;24.38
77212;BME280;66206;0.000;0.000;2023-03-01T05:18:45;98590.20;;;20.60;24.41
77212;BME280;66206;0.000;0.000;2023-03-01T05:21:13;98584.46;;;20.58;24.37
77212;BME280;66206;0.000;0.000;2023-03-01T05:23:40;98587.34;;;20.56;24.37
77212;BME280;66206;0.000;0.000;2023-03-01T05:26:07;98583.81;;;20.58;24.40
77212;BME280;66206;0.000;0.000;2023-03-01T05:28:34;98587.24;;;20.43;24.56
77212;BME280;66206;0.000;0.000;2023-03-01T05:31:01;98586.43;;;20.59;24.29
77212;BME280;66206;0.000;0.000;2023-03-01T05:33:27;98587.82;;;20.40;24.56
77212;BME280;66206;0.000;0.000;2023-03-01T05:35:54;98587.74;;;20.41;24.50
77212;BME280;66206;0.000;0.000;2023-03-01T05:38:21;98583.64;;;20.45;24.56
77212;BME280;66206;0.000;0.000;2023-03-01T05:40:48;98584.05;;;20.43;24.51
77212;BME280;66206;0.000;0.000;2023-03-01T05:43:15;98584.22;;;20.37;24.61
77212;BME280;66206;0.000;0.000;2023-03-01T05:45:43;98584.50;;;20.38;24.47
77212;BME280;66206;0.000;0.000;2023-03-01T05:48:10;98578.30;;;20.48;24.35
77212;BME280;66206;0.000;0.000;2023-03-01T05:50:38;98578.58;;;20.52;24.25
77212;BME280;66206;0.000;0.000;2023-03-01T05:53:05;98575.56;;;20.42;24.33
77212;BME280;66206;0.000;0.000;2023-03-01T05:55:33;98573.70;;;20.33;24.46
77212;BME280;66206;0.000;0.000;2023-03-01T05:58:00;98574.51;;;20.30;24.62
77212;BME280;66206;0.000;0.000;2023-03-01T06:00:27;98568.27;;;20.26;24.71
77212;BME280;66206;0.000;0.000;2023-03-01T06:02:55;98571.57;;;20.28;26.48
77212;BME280;66206;0.000;0.000;2023-03-01T06:05:22;98572.34;;;20.43;27.76
77212;BME280;66206;0.000;0.000;2023-03-01T06:07:49;98570.16;;;20.31;27.36
77212;BME280;66206;0.000;0.000;2023-03-01T06:10:16;98569.50;;;20.46;27.91
77212;BME280;66206;0.000;0.000;2023-03-01T06:12:43;98569.75;;;20.25;27.87
77212;BME280;66206;0.000;0.000;2023-03-01T06:15:10;98566.48;;;20.28;27.89
77212;BME280;66206;0.000;0.000;2023-03-01T06:17:38;98562.48;;;20.22;27.72
77212;BME280;66206;0.000;0.000;2023-03-01T06:20:07;98558.19;;;20.60;27.03
77212;BME280;66206;0.000;0.000;2023-03-01T06:22:34;98559.70;;;20.49;27.50
77212;BME280;66206;0.000;0.000;2023-03-01T06:25:01;98560.54;;;20.75;28.33
77212;BME280;66206;0.000;0.000;2023-03-01T06:27:27;98557.28;;;20.88;28.53
77212;BME280;66206;0.000;0.000;2023-03-01T06:29:54;98556.62;;;20.59;28.57
77212;BME280;66206;0.000;0.000;2023-03-01T06:32:21;98558.71;;;20.68;28.50
77212;BME280;66206;0.000;0.000;2023-03-01T06:34:47;98557.45;;;20.83;28.20
77212;BME280;66206;0.000;0.000;2023-03-01T06:37:14;98553.81;;;20.79;28.34
77212;BME280;66206;0.000;0.000;2023-03-01T06:39:41;98553.17;;;20.67;28.30
77212;BME280;66206;0.000;0.000;2023-03-01T06:42:08;98557.54;;;20.77;28.16
77212;BME280;66206;0.000;0.000;2023-03-01T06:44:34;98560.77;;;20.23;28.44
77212;BME280;66206;0.000;0.000;2023-03-01T06:47:01;98557.63;;;20.61;28.02
77212;BME280;66206;0.000;0.000;2023-03-01T06:49:28;98553.86;;;20.51;28.33
77212;BME280;66206;0.000;0.000;2023-03-01T06:51:54;98557.19;;;20.50;28.43
77212;BME280;66206;0.000;0.000;2023-03-01T06:54:21;98557.27;;;20.46;28.35
77212;BME280;66206;0.000;0.000;2023-03-01T06:56:48;98555.55;;;20.53;28.25
77212;BME280;66206;0.000;0.000;2023-03-01T06:59:15;98556.52;;;20.59;28.29
77212;BME280;66206;0.000;0.000;2023-03-01T07:01:42;98559.00;;;20.49;28.40
77212;BME280;66206;0.000;0.000;2023-03-01T07:04:09;98556.56;;;20.57;28.31
77212;BME280;66206;0.000;0.000;2023-03-01T07:06:36;98554.99;;;20.49;28.28
77212;BME280;66206;0.000;0.000;2023-03-01T07:09:03;98553.28;;;20.50;28.31
77212;BME280;66206;0.000;0.000;2023-03-01T07:11:29;98549.52;;;20.66;28.08
77212;BME280;66206;0.000;0.000;2023-03-01T07:13:56;98551.65;;;20.40;28.37
77212;BME280;66206;0.000;0.000;2023-03-01T07:16:23;98551.61;;;20.62;28.13
77212;BME280;66206;0.000;0.000;2023-03-01T07:18:49;98549.80;;;20.70;28.05
77212;BME280;66206;0.000;0.000;2023-03-01T07:21:16;98546.60;;;20.72;27.98
77212;BME280;66206;0.000;0.000;2023-03-01T07:23:43;98544.97;;;20.67;27.97
77212;BME280;66206;0.000;0.000;2023-03-01T07:26:09;98536.98;;;20.66;27.89
77212;BME280;66206;0.000;0.000;2023-03-01T07:28:36;98539.75;;;20.74;27.91
77212;BME280;66206;0.000;0.000;2023-03-01T07:31:03;98536.21;;;20.61;27.88
77212;BME280;66206;0.000;0.000;2023-03-01T07:33:30;98533.56;;;20.71;27.85
77212;BME280;66206;0.000;0.000;2023-03-01T07:35:57;98536.61;;;20.61;27.85
77212;BME280;66206;0.000;0.000;2023-03-01T07:38:24;98532.58;;;20.61;27.83
77212;BME280;66206;0.000;0.000;2023-03-01T07:40:51;98538.05;;;20.51;27.78
77212;BME280;66206;0.000;0.000;2023-03-01T07:43:17;98534.45;;;20.55;27.86
77212;BME280;66206;0.000;0.000;2023-03-01T07:45:44;98529.97;;;20.60;27.76
77212;BME280;66206;0.000;0.000;2023-03-01T07:48:11;98524.26;;;20.56;27.62
77212;BME280;66206;0.000;0.000;2023-03-01T07:50:37;98522.82;;;20.54;27.77
77212;BME280;66206;0.000;0.000;2023-03-01T07:53:04;98521.48;;;20.50;27.80
77212;BME280;66206;0.000;0.000;2023-03-01T07:55:31;98512.48;;;20.53;27.61
77212;BME280;66206;0.000;0.000;2023-03-01T07:57:57;98521.26;;;20.55;27.57
77212;BME280;66206;0.000;0.000;2023-03-01T08:00:24;98516.60;;;20.57;27.36
77212;BME280;66206;0.000;0.000;2023-03-01T08:02:51;98515.07;;;20.58;27.30
77212;BME280;66206;0.000;0.000;2023-03-01T08:05:18;98522.68;;;20.42;27.45
77212;BME280;66206;0.000;0.000;2023-03-01T08:07:44;98525.99;;;20.57;27.31
77212;BME280;66206;0.000;0.000;2023-03-01T08:10:11;98528.02;;;20.71;27.21
77212;BME280;66206;0.000;0.000;2023-03-01T08:12:38;98530.19;;;20.41;27.35
77212;BME280;66206;0.000;0.000;2023-03-01T08:15:05;98525.36;;;20.46;27.52
77212;BME280;66206;0.000;0.000;2023-03-01T08:17:32;98524.65;;;20.51;27.50
77212;BME280;66206;0.000;0.000;2023-03-01T08:19:58;98522.22;;;20.46;27.44
77212;BME280;66206;0.000;0.000;2023-03-01T08:22:25;98513.64;;;20.84;27.54
77212;BME280;66206;0.000;0.000;2023-03-01T08:24:52;98514.83;;;20.84;27.54
77212;BME280;66206;0.000;0.000;2023-03-01T08:27:18;98511.74;;;20.63;27.51
77212;BME280;66206;0.000;0.000;2023-03-01T08:29:45;98510.03;;;20.44;27.61
77212;BME280;66206;0.000;0.000;2023-03-01T08:32:12;98499.49;;;20.72;27.36
77212;BME280;66206;0.000;0.000;2023-03-01T08:34:38;98497.22;;;20.79;27.33
77212;BME280;66206;0.000;0.000;2023-03-01T08:37:05;98497.87;;;21.02;27.11
77212;BME280;66206;0.000;0.000;2023-03-01T08:39:32;98492.89;;;21.09;27.01
77212;BME280;66206;0.000;0.000;2023-03-01T08:41:59;98498.64;;;21.26;26.71
77212;BME280;66206;0.000;0.000;2023-03-01T08:44:25;98494.20;;;21.47;26.63
77212;BME280;66206;0.000;0.000;2023-03-01T08:46:52;98485.74;;;21.65;26.14
77212;BME280;66206;0.000;0.000;2023-03-01T08:49:19;98479.21;;;21.49;26.31
77212;BME280;66206;0.000;0.000;2023-03-01T08:51:46;98478.75;;;21.65;26.14
77212;BME280;66206;0.000;0.000;2023-03-01T08:54:14;98478.72;;;21.74;26.24
77212;BME280;66206;0.000;0.000;2023-03-01T08:56:41;98482.33;;;21.70;26.05
77212;BME280;66206;0.000;0.000;2023-03-01T08:59:09;98477.95;;;21.78;26.09
77212;BME280;66206;0.000;0.000;2023-03-01T09:01:36;98480.82;;;21.67;26.12
77212;BME280;66206;0.000;0.000;2023-03-01T09:04:03;98479.58;;;21.40;26.42
77212;BME280;66206;0.000;0.000;2023-03-01T09:06:30;98473.62;;;21.52;26.27
77212;BME280;66206;0.000;0.000;2023-03-01T09:08:56;98476.35;;;21.38;26.43
77212;BME280;66206;0.000;0.000;2023-03-01T09:11:23;98474.46;;;21.60;26.26
77212;BME280;66206;0.000;0.000;2023-03-01T09:13:50;98474.58;;;21.55;26.36
77212;BME280;66206;0.000;0.000;2023-03-01T09:16:18;98469.72;;;21.28;26.41
77212;BME280;66206;0.000;0.000;2023-03-01T09:18:48;98467.37;;;21.20;26.57
77212;BME280;66206;0.000;0.000;2023-03-01T09:21:15;98471.77;;;21.26;26.46
77212;BME280;66206;0.000;0.000;2023-03-01T09:23:43;98466.70;;;21.14;26.87
77212;BME280;66206;0.000;0.000;2023-03-01T09:26:10;98463.57;;;20.71;27.25
77212;BME280;66206;0.000;0.000;2023-03-01T09:28:37;98459.59;;;21.50;26.96
77212;BME280;66206;0.000;0.000;2023-03-01T09:31:04;98458.11;;;21.67;26.41
77212;BME280;66206;0.000;0.000;2023-03-01T09:33:31;98453.33;;;21.73;26.44
77212;BME280;66206;0.000;0.000;2023-03-01T09:35:58;98450.62;;;21.62;26.46
77212;BME280;66206;0.000;0.000;2023-03-01T09:38:25;98451.70;;;21.76;26.26
77212;BME280;66206;0.000;0.000;2023-03-01T09:40:51;98453.48;;;21.53;26.38
77212;BME280;66206;0.000;0.000;2023-03-01T09:43:21;98451.12;;;21.50;26.41
77212;BME280;66206;0.000;0.000;2023-03-01T09:45:44;98449.26;;;21.58;26.42
77212;BME280;66206;0.000;0.000;2023-03-01T09:48:13;98448.68;;;21.45;26.44
77212;BME280;66206;0.000;0.000;2023-03-01T09:50:42;98442.17;;;21.55;26.52
77212;BME280;66206;0.000;0.000;2023-03-01T09:53:10;98445.32;;;21.37;26.59
77212;BME280;66206;0.000;0.000;2023-03-01T09:55:41;98444.52;;;21.40;26.49
77212;BME280;66206;0.000;0.000;2023-03-01T09:58:19;98446.37;;;21.44;26.49
77212;BME280;66206;0.000;0.000;2023-03-01T10:00:37;98441.14;;;21.21;26.64
77212;BME280;66206;0.000;0.000;2023-03-01T10:03:10;98442.47;;;20.92;26.92
77212;BME280;66206;0.000;0.000;2023-03-01T10:05:35;98441.67;;;21.30;26.65
77212;BME280;66206;0.000;0.000;2023-03-01T10:08:14;98446.32;;;21.22;26.77
77212;BME280;66206;0.000;0.000;2023-03-01T10:10:32;98441.32;;;21.15;26.86
77212;BME280;66206;0.000;0.000;2023-03-01T10:13:00;98445.82;;;21.21;26.88
77212;BME280;66206;0.000;0.000;2023-03-01T10:15:32;98444.86;;;21.25;26.77
77212;BME280;66206;0.000;0.000;2023-03-01T10:17:56;98437.50;;;21.11;26.81
77212;BME280;66206;0.000;0.000;2023-03-01T10:20:25;98430.65;;;21.11;26.95
77212;BME280;66206;0.000;0.000;2023-03-01T10:22:52;98430.04;;;21.03;27.04
77212;BME280;66206;0.000;0.000;2023-03-01T10:25:23;98427.45;;;21.08;26.91
77212;BME280;66206;0.000;0.000;2023-03-01T10:27:46;98422.86;;;21.14;26.94
77212;BME280;66206;0.000;0.000;2023-03-01T10:30:12;98420.51;;;20.68;27.38
77212;BME280;66206;0.000;0.000;2023-03-01T10:32:37;98423.95;;;20.70;27.66
77212;BME280;66206;0.000;0.000;2023-03-01T10:35:15;98426.20;;;20.94;27.70
77212;BME280;66206;0.000;0.000;2023-03-01T10:37:31;98419.49;;;21.36;27.07
77212;BME280;66206;0.000;0.000;2023-03-01T10:39:58;98415.16;;;21.32;26.94
77212;BME280;66206;0.000;0.000;2023-03-01T10:42:28;98412.89;;;21.72;26.53
77212;BME280;66206;0.000;0.000;2023-03-01T10:44:56;98408.84;;;21.70;26.41
77212;BME280;66206;0.000;0.000;2023-03-01T10:47:23;98403.37;;;21.61;26.38
77212;BME280;66206;0.000;0.000;2023-03-01T10:49:52;98400.57;;;21.97;26.13
77212;BME280;66206;0.000;0.000;2023-03-01T10:52:20;98398.57;;;22.10;25.82
77212;BME280;66206;0.000;0.000;2023-03-01T10:54:51;98390.78;;;22.04;25.82
77212;BME280;66206;0.000;0.000;2023-03-01T10:57:24;98386.09;;;22.26;25.79
77212;BME280;66206;0.000;0.000;2023-03-01T10:59:43;98374.14;;;22.27;25.64
77212;BME280;66206;0.000;0.000;2023-03-01T11:02:15;98363.49;;;22.16;25.53
77212;BME280;66206;0.000;0.000;2023-03-01T11:04:37;98357.84;;;22.52;25.55
77212;BME280;66206;0.000;0.000;2023-03-01T11:07:04;98357.55;;;22.44;25.53
77212;BME280;66206;0.000;0.000;2023-03-01T11:09:31;98349.78;;;22.58;25.20
77212;BME280;66206;0.000;0.000;2023-03-01T11:11:59;98344.02;;;22.25;25.45
77212;BME280;66206;0.000;0.000;2023-03-01T11:14:27;98338.73;;;22.75;25.51
77212;BME280;66206;0.000;0.000;2023-03-01T11:16:58;98341.17;;;22.81;25.41
77212;BME280;66206;0.000;0.000;2023-03-01T11:19:26;98338.65;;;22.96;25.20
77212;BME280;66206;0.000;0.000;2023-03-01T11:21:55;98328.05;;;22.99;24.94
77212;BME280;66206;0.000;0.000;2023-03-01T11:24:18;98325.74;;;22.96;24.93
77212;BME280;66206;0.000;0.000;2023-03-01T11:26:46;98318.61;;;23.40;24.64
77212;BME280;66206;0.000;0.000;2023-03-01T11:29:16;98321.34;;;23.26;25.02
77212;BME280;66206;0.000;0.000;2023-03-01T11:31:39;98318.72;;;23.12;24.67
77212;BME280;66206;0.000;0.000;2023-03-01T11:34:09;98322.34;;;22.81;25.06
77212;BME280;66206;0.000;0.000;2023-03-01T11:36:34;98317.61;;;23.35;24.37
77212;BME280;66206;0.000;0.000;2023-03-01T11:39:03;98315.36;;;23.16;25.07
77212;BME280;66206;0.000;0.000;2023-03-01T11:41:33;98313.04;;;22.70;25.18
77212;BME280;66206;0.000;0.000;2023-03-01T11:44:01;98303.12;;;22.97;24.89
77212;BME280;66206;0.000;0.000;2023-03-01T11:46:48;98297.95;;;22.82;24.93
77212;BME280;66206;0.000;0.000;2023-03-01T11:48:59;98292.64;;;22.66;25.18
77212;BME280;66206;0.000;0.000;2023-03-01T11:51:32;98294.68;;;22.41;25.33
77212;BME280;66206;0.000;0.000;2023-03-01T11:54:00;98283.15;;;22.71;25.10
77212;BME280;66206;0.000;0.000;2023-03-01T11:56:25;98282.26;;;22.63;25.10
77212;BME280;66206;0.000;0.000;2023-03-01T11:58:56;98279.16;;;22.58;25.06
77212;BME280;66206;0.000;0.000;2023-03-01T12:01:19;98275.80;;;22.21;25.49
77212;BME280;66206;0.000;0.000;2023-03-01T12:03:46;98272.65;;;22.33;25.34
77212;BME280;66206;0.000;0.000;2023-03-01T12:06:12;98268.28;;;22.52;25.21
77212;BME280;66206;0.000;0.000;2023-03-01T12:08:36;98267.82;;;22.64;25.04
77212;BME280;66206;0.000;0.000;2023-03-01T12:11:02;98262.83;;;22.36;25.33
77212;BME280;66206;0.000;0.000;2023-03-01T12:13:30;98257.26;;;22.62;25.28
77212;BME280;66206;0.000;0.000;2023-03-01T12:15:58;98251.51;;;22.53;25.42
77212;BME280;66206;0.000;0.000;2023-03-01T12:18:25;98248.89;;;22.58;25.73
77212;BME280;66206;0.000;0.000;2023-03-01T12:20:51;98249.12;;;22.84;25.48
77212;BME280;66206;0.000;0.000;2023-03-01T12:23:23;98243.39;;;22.91;25.78
77212;BME280;66206;0.000;0.000;2023-03-01T12:25:45;98243.01;;;22.68;25.92
77212;BME280;66206;0.000;0.000;2023-03-01T12:28:17;98236.09;;;22.41;26.27
77212;BME280;66206;0.000;0.000;2023-03-01T12:30:45;98229.96;;;22.78;26.11
77212;BME280;66206;0.000;0.000;2023-03-01T12:33:11;98228.32;;;22.50;26.04
77212;BME280;66206;0.000;0.000;2023-03-01T12:35:39;98221.73;;;22.61;25.92
77212;BME280;66206;0.000;0.000;2023-03-01T12:38:06;98221.44;;;22.72;25.88
77212;BME280;66206;0.000;0.000;2023-03-01T12:40:33;98216.68;;;22.30;26.14
77212;BME280;66206;0.000;0.000;2023-03-01T12:43:03;98208.73;;;22.78;25.80
77212;BME280;66206;0.000;0.000;2023-03-01T12:46:35;98213.59;;;22.49;25.79
77212;BME280;66206;0.000;0.000;2023-03-01T12:48:01;98214.67;;;22.63;25.95
77212;BME280;66206;0.000;0.000;2023-03-01T12:50:23;98210.36;;;22.67;25.59
77212;BME280;66206;0.000;0.000;2023-03-01T12:52:51;98204.57;;;22.83;24.30
77212;BME280;66206;0.000;0.000;2023-03-01T12:55:24;98195.21;;;22.25;24.73
77212;BME280;66206;0.000;0.000;2023-03-01T12:57:48;98189.05;;;22.50;24.78
77212;BME280;66206;0.000;0.000;2023-03-01T13:00:18;98192.13;;;22.55;24.92
77212;BME280;66206;0.000;0.000;2023-03-01T13:02:44;98192.52;;;22.56;25.16
77212;BME280;66206;0.000;0.000;2023-03-01T13:05:16;98190.87;;;22.84;24.21
77212;BME280;66206;0.000;0.000;2023-03-01T13:07:37;98195.71;;;22.89;23.72